createdAt,value
2023-05-25T00:00:49.841Z,2.33
2023-05-25T00:03:06.504Z,2.30
2023-05-25T00:05:11.461Z,2.75
2023-05-25T00:07:13.495Z,2.08
2023-05-25T00:09:15.092Z,2.42
2023-05-25T00:11:19.673Z,2.50
2023-05-25T00:13:21.400Z,2.17
2023-05-25T00:15:25.397Z,2.30
2023-05-25T00:17:33.690Z,2.17
2023-05-25T00:19:36.037Z,2.38
2023-05-25T00:21:43.448Z,2.35
2023-05-25T00:23:44.943Z,2.00
2023-05-25T00:25:46.888Z,2.13
2023-05-25T00:27:48.491Z,2.58
2023-05-25T00:29:50.138Z,2.60
2023-05-25T00:31:52.731Z,2.38
2023-05-25T00:34:00.610Z,2.60
2023-05-25T00:36:03.358Z,2.13
2023-05-25T00:38:05.273Z,2.60
2023-05-25T00:40:10.696Z,2.30
2023-05-25T00:42:12.401Z,1.75
2023-05-25T00:44:17.397Z,2.50
2023-05-25T00:46:23.443Z,2.75
2023-05-25T00:48:28.019Z,2.50
2023-05-25T00:50:43.372Z,2.55
2023-05-25T00:52:50.696Z,2.38
2023-05-25T00:54:59.848Z,2.58
2023-05-25T00:57:04.133Z,3.00
2023-05-25T00:59:08.279Z,2.10
2023-05-25T01:01:13.590Z,2.05
2023-05-25T01:03:21.835Z,2.33
2023-05-25T01:05:29.122Z,2.30
2023-05-25T01:07:32.841Z,2.40
2023-05-25T01:09:36.602Z,2.42
2023-05-25T01:11:42.178Z,2.58
2023-05-25T01:13:44.352Z,2.03
2023-05-25T01:15:47.519Z,2.10
2023-05-25T01:18:02.759Z,2.28
2023-05-25T01:20:11.265Z,2.20
2023-05-25T01:22:19.116Z,2.10
2023-05-25T01:24:32.234Z,1.98
2023-05-25T01:26:38.489Z,2.20
2023-05-25T01:28:46.762Z,2.30
2023-05-25T01:30:50.745Z,2.22
2023-05-25T01:32:56.722Z,2.40
2023-05-25T01:35:01.288Z,2.60
2023-05-25T01:37:03.165Z,1.90
2023-05-25T01:39:07.251Z,2.40
2023-05-25T01:41:12.215Z,1.92
2023-05-25T01:43:13.892Z,2.10
2023-05-25T01:45:19.666Z,2.47
2023-05-25T01:47:40.912Z,2.40
2023-05-25T01:50:06.387Z,2.45
2023-05-25T01:52:28.024Z,2.30
2023-05-25T01:54:50.409Z,2.42
2023-05-25T01:56:56.571Z,2.63
2023-05-25T01:58:59.032Z,2.13
2023-05-25T02:01:08.698Z,2.40
2023-05-25T02:03:10.883Z,2.45
2023-05-25T02:05:13.283Z,2.60
2023-05-25T02:07:17.272Z,2.58
2023-05-25T02:09:19.522Z,2.35
2023-05-25T02:11:21.874Z,2.60
2023-05-25T02:13:23.724Z,2.78
2023-05-25T02:15:25.724Z,2.72
2023-05-25T02:17:27.991Z,2.55
2023-05-25T02:19:30.194Z,2.50
2023-05-25T02:21:32.657Z,2.38
2023-05-25T02:23:38.226Z,2.60
2023-05-25T02:25:44.995Z,3.10
2023-05-25T02:27:48.585Z,3.08
2023-05-25T02:29:50.971Z,3.20
2023-05-25T02:31:52.574Z,3.20
2023-05-25T02:33:54.191Z,3.15
2023-05-25T02:35:56.154Z,3.20
2023-05-25T02:37:57.652Z,2.78
2023-05-25T02:39:59.494Z,2.97
2023-05-25T02:42:01.576Z,3.17
2023-05-25T02:44:03.456Z,2.72
2023-05-25T02:46:06.428Z,2.40
2023-05-25T02:48:08.542Z,2.80
2023-05-25T02:50:10.557Z,2.70
2023-05-25T02:52:17.836Z,2.65
2023-05-25T02:54:20.756Z,2.33
2023-05-25T02:56:24.839Z,2.30
2023-05-25T02:58:26.404Z,2.15
2023-05-25T03:00:50.796Z,2.53
2023-05-25T03:02:52.880Z,2.20
2023-05-25T03:04:54.731Z,2.35
2023-05-25T03:06:56.457Z,2.47
2023-05-25T03:08:57.945Z,2.50
2023-05-25T03:10:59.845Z,2.47
2023-05-25T03:13:01.734Z,2.70
2023-05-25T03:15:04.666Z,2.50
2023-05-25T03:17:06.491Z,2.22
2023-05-25T03:19:08.572Z,2.50
2023-05-25T03:21:12.278Z,2.03
2023-05-25T03:23:14.027Z,2.60
2023-05-25T03:25:18.316Z,2.35
2023-05-25T03:27:20.141Z,2.15
2023-05-25T03:29:22.970Z,2.50
2023-05-25T03:31:24.745Z,2.60
2023-05-25T03:33:26.590Z,2.50
2023-05-25T03:35:28.719Z,2.50
2023-05-25T03:37:30.390Z,2.70
2023-05-25T03:39:33.671Z,2.67
2023-05-25T03:41:35.261Z,2.80
2023-05-25T03:43:36.875Z,3.30
2023-05-25T03:45:40.560Z,2.90
2023-05-25T03:47:42.366Z,2.80
2023-05-25T03:49:43.993Z,3.03
2023-05-25T03:51:45.516Z,2.80
2023-05-25T03:53:48.088Z,2.60
2023-05-25T03:55:52.095Z,2.60
2023-05-25T03:57:53.850Z,2.33
2023-05-25T03:59:56.370Z,2.47
2023-05-25T04:01:59.456Z,2.22
2023-05-25T04:04:03.263Z,2.75
2023-05-25T04:06:05.035Z,2.80
2023-05-25T04:08:10.754Z,2.78
2023-05-25T04:10:12.568Z,3.17
2023-05-25T04:12:14.434Z,2.65
2023-05-25T04:14:21.365Z,2.55
2023-05-25T04:16:23.562Z,2.70
2023-05-25T04:18:25.219Z,2.45
2023-05-25T04:20:26.917Z,2.53
2023-05-25T04:22:28.536Z,2.92
2023-05-25T04:24:35.365Z,2.90
2023-05-25T04:26:39.649Z,3.10
2023-05-25T04:28:41.890Z,3.00
2023-05-25T04:31:03.863Z,2.47
2023-05-25T04:33:24.721Z,2.88
2023-05-25T04:35:46.839Z,2.53
2023-05-25T04:37:49.045Z,2.90
2023-05-25T04:39:51.404Z,3.13
2023-05-25T04:41:53.431Z,3.10
2023-05-25T04:44:07.959Z,2.80
2023-05-25T04:46:16.955Z,2.75
2023-05-25T04:48:19.414Z,3.28
2023-05-25T04:50:21.878Z,3.17
2023-05-25T04:52:23.557Z,3.38
2023-05-25T04:54:25.453Z,2.55
2023-05-25T04:56:29.166Z,2.80
2023-05-25T04:58:33.530Z,2.90
2023-05-25T05:00:41.019Z,2.45
2023-05-25T05:02:44.403Z,2.90
2023-05-25T05:04:48.363Z,3.03
2023-05-25T05:06:50.011Z,2.80
2023-05-25T05:08:54.813Z,2.72
2023-05-25T05:10:57.041Z,3.20
2023-05-25T05:13:00.088Z,3.03
2023-05-25T05:15:02.054Z,2.78
2023-05-25T05:17:04.503Z,2.90
2023-05-25T05:19:06.288Z,2.92
2023-05-25T05:21:07.933Z,2.80
2023-05-25T05:23:16.930Z,2.92
2023-05-25T05:25:19.002Z,2.65
2023-05-25T05:27:22.446Z,2.88
2023-05-25T05:29:29.718Z,3.38
2023-05-25T05:31:32.176Z,3.28
2023-05-25T05:33:34.240Z,3.28
2023-05-25T05:35:36.893Z,3.30
2023-05-25T05:37:48.458Z,3.63
2023-05-25T05:39:52.406Z,3.53
2023-05-25T05:41:54.935Z,3.22
2023-05-25T05:43:56.548Z,3.67
2023-05-25T05:45:58.058Z,3.60
2023-05-25T05:47:59.642Z,3.40
2023-05-25T05:50:02.067Z,2.90
2023-05-25T05:52:05.494Z,3.47
2023-05-25T05:54:07.378Z,3.40
2023-05-25T05:56:17.557Z,3.13
2023-05-25T05:58:22.339Z,2.95
2023-05-25T06:00:24.590Z,2.92
2023-05-25T06:02:26.902Z,3.47
2023-05-25T06:04:29.239Z,3.00
2023-05-25T06:06:34.947Z,3.10
2023-05-25T06:08:36.890Z,2.85
2023-05-25T06:10:38.650Z,3.25
2023-05-25T06:12:48.667Z,3.13
2023-05-25T06:14:52.213Z,3.25
2023-05-25T06:16:54.404Z,2.80
2023-05-25T06:18:56.353Z,3.00
2023-05-25T06:20:58.093Z,2.72
2023-05-25T06:22:59.711Z,2.85
2023-05-25T06:25:01.803Z,2.90
2023-05-25T06:27:03.747Z,3.00
2023-05-25T06:29:09.003Z,2.70
2023-05-25T06:31:10.733Z,2.47
2023-05-25T06:33:12.966Z,3.00
2023-05-25T06:35:19.639Z,2.60
2023-05-25T06:37:27.452Z,2.60
2023-05-25T06:39:32.599Z,2.58
2023-05-25T06:41:38.625Z,3.00
2023-05-25T06:43:40.396Z,2.80
2023-05-25T06:45:50.769Z,2.75
2023-05-25T06:47:54.298Z,2.60
2023-05-25T06:49:56.714Z,2.70
2023-05-25T06:51:58.311Z,2.72
2023-05-25T06:54:00.299Z,2.40
2023-05-25T06:56:01.895Z,2.47
2023-05-25T06:58:03.763Z,2.40
2023-05-25T07:00:09.672Z,2.50
2023-05-25T07:02:11.590Z,2.25
2023-05-25T07:04:13.349Z,2.88
2023-05-25T07:06:19.823Z,1.90
2023-05-25T07:08:21.372Z,2.25
2023-05-25T07:10:22.901Z,2.47
2023-05-25T07:12:27.065Z,2.50
2023-05-25T07:14:28.861Z,2.75
2023-05-25T07:16:31.970Z,2.42
2023-05-25T07:18:33.612Z,2.60
2023-05-25T07:20:38.615Z,2.88
2023-05-25T07:22:40.426Z,2.30
2023-05-25T07:24:41.974Z,2.47
2023-05-25T07:26:44.538Z,2.38
2023-05-25T07:28:46.444Z,2.40
2023-05-25T07:30:53.556Z,2.20
2023-05-25T07:32:55.261Z,2.67
2023-05-25T07:34:56.978Z,2.30
2023-05-25T07:36:58.674Z,2.70
2023-05-25T07:39:00.280Z,2.75
2023-05-25T07:41:03.234Z,2.35
2023-05-25T07:43:08.108Z,2.15
2023-05-25T07:45:11.194Z,2.13
2023-05-25T07:47:12.868Z,2.60
2023-05-25T07:49:17.712Z,2.47
2023-05-25T07:51:22.280Z,2.55
2023-05-25T07:53:24.188Z,2.20
2023-05-25T07:55:26.859Z,2.25
2023-05-25T07:57:29.678Z,2.25
2023-05-25T07:59:31.315Z,2.67
2023-05-25T08:01:32.978Z,2.95
2023-05-25T08:03:48.149Z,2.60
2023-05-25T08:05:54.170Z,2.47
2023-05-25T08:07:57.857Z,2.70
2023-05-25T08:09:59.900Z,2.55
2023-05-25T08:12:24.149Z,2.22
2023-05-25T08:14:23.926Z,2.25
2023-05-25T08:16:26.061Z,2.40
2023-05-25T08:18:27.565Z,2.50
2023-05-25T08:20:29.363Z,2.40
2023-05-25T08:22:30.881Z,2.40
2023-05-25T08:24:32.725Z,2.75
2023-05-25T08:26:53.055Z,2.95
2023-05-25T08:28:56.469Z,2.53
2023-05-25T08:30:58.789Z,2.30
2023-05-25T08:33:00.558Z,2.55
2023-05-25T08:35:03.756Z,2.60
2023-05-25T08:37:07.010Z,2.38
2023-05-25T08:39:09.275Z,2.35
2023-05-25T08:41:17.436Z,2.40
2023-05-25T08:43:19.060Z,2.40
2023-05-25T08:45:34.384Z,2.60
2023-05-25T08:47:42.644Z,2.88
2023-05-25T08:49:45.195Z,2.55
2023-05-25T08:51:51.965Z,2.67
2023-05-25T08:53:55.178Z,2.45
2023-05-25T08:55:58.867Z,2.25
2023-05-25T08:58:07.282Z,2.60
2023-05-25T09:00:11.527Z,2.70
2023-05-25T09:02:26.897Z,2.60
2023-05-25T09:04:29.784Z,2.22
2023-05-25T09:06:36.808Z,2.30
2023-05-25T09:08:42.101Z,3.00
2023-05-25T09:10:43.919Z,2.63
2023-05-25T09:12:46.639Z,2.75
2023-05-25T09:14:49.379Z,2.70
2023-05-25T09:16:51.230Z,2.85
2023-05-25T09:18:52.857Z,3.13
2023-05-25T09:20:55.434Z,2.70
2023-05-25T09:23:01.007Z,2.92
2023-05-25T09:25:08.327Z,2.70
2023-05-25T09:27:17.508Z,2.92
2023-05-25T09:29:19.677Z,3.22
2023-05-25T09:31:23.945Z,2.58
2023-05-25T09:33:26.508Z,2.70
2023-05-25T09:35:31.384Z,3.00
2023-05-25T09:37:33.218Z,2.42
2023-05-25T09:39:35.682Z,3.00
2023-05-25T09:41:41.023Z,2.90
2023-05-25T09:43:48.843Z,2.88
2023-05-25T09:45:56.361Z,2.60
2023-05-25T09:48:01.758Z,2.60
2023-05-25T09:50:04.244Z,2.80
2023-05-25T09:52:07.119Z,3.05
2023-05-25T09:54:12.595Z,3.00
2023-05-25T09:56:14.426Z,3.22
2023-05-25T09:58:16.247Z,2.80
2023-05-25T10:00:18.298Z,2.92
2023-05-25T10:02:19.996Z,3.13
2023-05-25T10:04:21.591Z,3.55
2023-05-25T10:06:26.943Z,2.65
2023-05-25T10:08:30.152Z,3.10
2023-05-25T10:10:32.786Z,2.80
2023-05-25T10:12:35.320Z,3.35
2023-05-25T10:14:38.627Z,2.95
2023-05-25T10:16:42.287Z,2.80
2023-05-25T10:18:49.721Z,2.67
2023-05-25T10:20:57.204Z,2.72
2023-05-25T10:23:10.830Z,2.95
2023-05-25T10:25:26.148Z,2.95
2023-05-25T10:27:38.653Z,2.70
2023-05-25T10:29:40.622Z,3.00
2023-05-25T10:31:42.850Z,3.03
2023-05-25T10:33:49.178Z,2.95
2023-05-25T10:36:09.070Z,3.15
2023-05-25T10:38:15.929Z,2.92
2023-05-25T10:40:19.273Z,3.08
2023-05-25T10:42:21.011Z,2.75
2023-05-25T10:44:23.242Z,3.20
2023-05-25T10:46:26.082Z,2.80
2023-05-25T10:48:38.538Z,3.00
2023-05-25T10:50:40.524Z,3.20
2023-05-25T10:52:57.871Z,3.13
2023-05-25T10:55:04.781Z,3.10
2023-05-25T10:57:11.168Z,3.08
2023-05-25T10:59:13.555Z,2.80
2023-05-25T11:01:16.269Z,3.10
2023-05-25T11:03:20.838Z,3.10
2023-05-25T11:05:31.288Z,3.22
2023-05-25T11:07:55.875Z,3.05
2023-05-25T11:09:59.367Z,2.70
2023-05-25T11:12:03.520Z,3.40
2023-05-25T11:14:05.352Z,3.47
2023-05-25T11:16:26.313Z,3.17
2023-05-25T11:18:38.083Z,3.08
2023-05-25T11:20:40.266Z,2.90
2023-05-25T11:22:42.479Z,3.30
2023-05-25T11:24:50.352Z,3.42
2023-05-25T11:26:57.283Z,3.30
2023-05-25T11:29:00.473Z,3.00
2023-05-25T11:31:09.696Z,3.38
2023-05-25T11:33:21.726Z,3.30
2023-05-25T11:35:24.896Z,3.15
2023-05-25T11:37:31.336Z,3.30
2023-05-25T11:39:33.292Z,3.22
2023-05-25T11:41:36.440Z,2.65
2023-05-25T11:43:38.368Z,2.80
2023-05-25T11:45:40.197Z,3.03
2023-05-25T11:47:42.023Z,3.28
2023-05-25T11:49:46.167Z,3.28
2023-05-25T11:51:48.024Z,3.65
2023-05-25T11:53:50.049Z,3.50
2023-05-25T11:55:55.602Z,3.28
2023-05-25T11:58:05.848Z,3.40
2023-05-25T12:00:11.372Z,3.47
2023-05-25T12:02:17.660Z,3.58
2023-05-25T12:04:21.725Z,3.40
2023-05-25T12:06:34.168Z,3.08
2023-05-25T12:08:36.540Z,3.38
2023-05-25T12:10:50.342Z,3.08
2023-05-25T12:12:53.137Z,3.53
2023-05-25T12:14:55.351Z,3.67
2023-05-25T12:16:58.465Z,3.30
2023-05-25T12:19:01.897Z,3.53
2023-05-25T12:21:08.275Z,3.45
2023-05-25T12:23:10.229Z,3.20
2023-05-25T12:25:12.937Z,2.90
2023-05-25T12:27:23.037Z,3.15
2023-05-25T12:29:28.243Z,3.50
2023-05-25T12:31:35.200Z,3.45
2023-05-25T12:33:37.074Z,3.30
2023-05-25T12:35:50.175Z,3.28
2023-05-25T12:38:10.674Z,3.30
2023-05-25T12:40:20.720Z,3.50
2023-05-25T12:42:22.690Z,3.38
2023-05-25T12:44:31.338Z,3.55
2023-05-25T12:46:33.367Z,3.42
2023-05-25T12:48:35.027Z,4.32
2023-05-25T12:50:37.168Z,3.40
2023-05-25T12:52:44.367Z,3.95
2023-05-25T12:54:47.111Z,3.67
2023-05-25T12:56:56.693Z,3.92
2023-05-25T12:59:14.511Z,3.20
2023-05-25T13:01:16.705Z,3.05
2023-05-25T13:03:18.389Z,3.85
2023-05-25T13:05:31.263Z,3.38
2023-05-25T13:07:33.424Z,3.10
2023-05-25T13:09:35.867Z,2.85
2023-05-25T13:11:37.845Z,3.30
2023-05-25T13:13:39.438Z,3.35
2023-05-25T13:15:41.218Z,2.95
2023-05-25T13:17:43.825Z,3.20
2023-05-25T13:19:46.037Z,3.40
2023-05-25T13:21:52.212Z,3.47
2023-05-25T13:23:54.480Z,3.60
2023-05-25T13:25:56.062Z,3.13
2023-05-25T13:27:58.288Z,3.30
2023-05-25T13:30:00.254Z,3.50
2023-05-25T13:32:04.787Z,3.67
2023-05-25T13:34:06.852Z,3.55
2023-05-25T13:36:09.085Z,3.45
2023-05-25T13:38:11.676Z,3.28
2023-05-25T13:40:16.322Z,3.30
2023-05-25T13:42:18.353Z,3.28
2023-05-25T13:44:20.068Z,3.70
2023-05-25T13:46:33.533Z,3.30
2023-05-25T13:48:36.654Z,3.50
2023-05-25T13:50:38.377Z,3.25
2023-05-25T13:52:39.857Z,3.20
2023-05-25T13:54:41.681Z,3.28
2023-05-25T13:56:43.251Z,3.00
2023-05-25T13:58:45.009Z,3.20
2023-05-25T14:00:47.609Z,3.30
2023-05-25T14:02:49.355Z,3.42
2023-05-25T14:04:51.003Z,3.63
2023-05-25T14:06:52.523Z,3.35
2023-05-25T14:08:54.267Z,3.50
2023-05-25T14:10:56.281Z,3.45
2023-05-25T14:12:58.654Z,3.35
2023-05-25T14:15:00.396Z,3.28
2023-05-25T14:17:10.547Z,3.53
2023-05-25T14:19:18.121Z,3.70
2023-05-25T14:21:19.905Z,3.00
2023-05-25T14:23:21.758Z,3.28
2023-05-25T14:25:23.281Z,3.45
2023-05-25T14:27:25.283Z,3.47
2023-05-25T14:29:29.317Z,3.00
2023-05-25T14:31:31.346Z,3.28
2023-05-25T14:33:32.975Z,3.20
2023-05-25T14:35:34.634Z,3.40
2023-05-25T14:37:36.478Z,3.22
2023-05-25T14:39:38.270Z,3.00
2023-05-25T14:41:42.764Z,3.40
2023-05-25T14:43:44.334Z,3.25
2023-05-25T14:45:49.551Z,3.25
2023-05-25T14:48:03.802Z,3.50
2023-05-25T14:50:16.087Z,3.05
2023-05-25T14:52:19.343Z,3.17
2023-05-25T14:54:21.753Z,3.03
2023-05-25T14:56:24.798Z,3.45
2023-05-25T14:58:26.527Z,3.28
2023-05-25T15:00:31.306Z,3.30
2023-05-25T15:02:33.068Z,2.97
2023-05-25T15:04:34.768Z,3.00
2023-05-25T15:06:36.940Z,3.38
2023-05-25T15:08:38.673Z,3.20
2023-05-25T15:10:40.344Z,3.53
2023-05-25T15:12:41.969Z,2.97
2023-05-25T15:14:43.550Z,2.90
2023-05-25T15:16:45.848Z,3.35
2023-05-25T15:18:47.475Z,3.90
2023-05-25T15:20:49.301Z,4.72
2023-05-25T15:22:53.673Z,3.72
2023-05-25T15:24:55.382Z,4.38
2023-05-25T15:26:57.026Z,4.10
2023-05-25T15:28:58.562Z,4.05
2023-05-25T15:31:02.856Z,4.82
2023-05-25T15:33:05.212Z,4.72
2023-05-25T15:35:07.347Z,4.72
2023-05-25T15:37:10.662Z,4.75
2023-05-25T15:39:14.697Z,4.50
2023-05-25T15:41:24.297Z,4.30
2023-05-25T15:43:28.502Z,4.88
2023-05-25T15:45:30.327Z,5.05
2023-05-25T15:47:31.953Z,5.00
2023-05-25T15:49:36.967Z,4.65
2023-05-25T15:51:44.403Z,3.85
2023-05-25T15:53:46.487Z,4.10
2023-05-25T15:55:48.229Z,3.80
2023-05-25T15:57:52.653Z,4.32
2023-05-25T15:59:54.906Z,4.50
2023-05-25T16:01:56.760Z,4.32
2023-05-25T16:03:58.775Z,3.47
2023-05-25T16:06:00.292Z,3.67
2023-05-25T16:08:04.101Z,3.90
2023-05-25T16:10:06.502Z,3.83
2023-05-25T16:12:08.343Z,4.15
2023-05-25T16:14:09.905Z,4.07
2023-05-25T16:16:11.431Z,3.80
2023-05-25T16:18:13.102Z,3.90
2023-05-25T16:20:14.944Z,3.90
2023-05-25T16:22:16.553Z,4.03
2023-05-25T16:24:18.173Z,3.83
2023-05-25T16:26:19.858Z,4.05
2023-05-25T16:28:21.523Z,4.00
2023-05-25T16:30:26.100Z,3.53
2023-05-25T16:32:28.950Z,4.00
2023-05-25T16:34:32.601Z,4.30
2023-05-25T16:36:34.499Z,4.38
2023-05-25T16:38:36.170Z,3.97
2023-05-25T16:40:37.878Z,4.03
2023-05-25T16:42:39.630Z,3.78
2023-05-25T16:44:43.281Z,3.95
2023-05-25T16:46:48.166Z,4.05
2023-05-25T16:48:52.715Z,3.95
2023-05-25T16:50:54.421Z,4.13
2023-05-25T16:52:56.951Z,4.00
2023-05-25T16:55:02.159Z,4.35
2023-05-25T16:57:03.939Z,4.10
2023-05-25T16:59:05.433Z,3.90
2023-05-25T17:01:11.541Z,3.50
2023-05-25T17:03:16.405Z,3.90
2023-05-25T17:05:18.202Z,4.88
2023-05-25T17:07:19.830Z,5.43
2023-05-25T17:09:21.316Z,7.05
2023-05-25T17:11:26.458Z,7.00
2023-05-25T17:13:31.186Z,7.63
2023-05-25T17:15:32.860Z,8.77
2023-05-25T17:17:34.416Z,9.45
2023-05-25T17:19:36.636Z,9.45
2023-05-25T17:21:38.434Z,8.45
2023-05-25T17:23:40.353Z,7.30
2023-05-25T17:25:42.701Z,7.53
2023-05-25T17:27:44.466Z,7.45
2023-05-25T17:29:46.069Z,8.32
2023-05-25T17:31:53.137Z,6.72
2023-05-25T17:33:55.108Z,6.38
2023-05-25T17:36:01.189Z,5.45
2023-05-25T17:38:02.841Z,4.80
2023-05-25T17:40:05.555Z,5.30
2023-05-25T17:42:07.522Z,4.80
2023-05-25T17:44:09.037Z,4.57
2023-05-25T17:46:10.863Z,4.25
2023-05-25T17:48:12.503Z,4.43
2023-05-25T17:50:35.981Z,4.75
2023-05-25T17:52:40.023Z,4.90
2023-05-25T17:54:41.667Z,4.32
2023-05-25T17:56:43.362Z,4.45
2023-05-25T17:58:47.582Z,4.65
2023-05-25T18:00:55.416Z,4.65
2023-05-25T18:02:57.400Z,4.72
2023-05-25T18:04:58.967Z,4.47
2023-05-25T18:07:06.569Z,4.63
2023-05-25T18:09:08.086Z,5.40
2023-05-25T18:11:09.705Z,4.95
2023-05-25T18:13:11.200Z,4.97
2023-05-25T18:15:12.895Z,5.30
2023-05-25T18:17:14.592Z,5.22
2023-05-25T18:19:17.861Z,4.95
2023-05-25T18:21:19.621Z,4.63
2023-05-25T18:23:22.385Z,5.05
2023-05-25T18:25:24.131Z,4.75
2023-05-25T18:27:25.801Z,5.43
2023-05-25T18:29:30.095Z,5.07
2023-05-25T18:31:33.212Z,5.28
2023-05-25T18:33:35.987Z,5.95
2023-05-25T18:35:38.647Z,7.90
2023-05-25T18:37:48.990Z,6.40
2023-05-25T18:39:51.630Z,5.95
2023-05-25T18:41:53.240Z,5.32
2023-05-25T18:43:55.134Z,5.30
2023-05-25T18:45:56.780Z,5.10
2023-05-25T18:47:58.920Z,4.93
2023-05-25T18:50:01.010Z,4.82
2023-05-25T18:52:03.254Z,4.50
2023-05-25T18:54:10.022Z,4.68
2023-05-25T18:56:12.277Z,4.50
2023-05-25T18:58:14.176Z,4.80
2023-05-25T19:00:17.369Z,4.65
2023-05-25T19:02:22.001Z,4.75
2023-05-25T19:04:23.800Z,4.70
2023-05-25T19:06:25.891Z,4.40
2023-05-25T19:08:27.506Z,4.82
2023-05-25T19:10:29.255Z,4.60
2023-05-25T19:12:32.421Z,4.60
2023-05-25T19:14:37.311Z,4.20
2023-05-25T19:16:38.924Z,5.05
2023-05-25T19:18:40.740Z,4.35
2023-05-25T19:20:42.541Z,5.13
2023-05-25T19:22:48.589Z,4.28
2023-05-25T19:25:00.731Z,4.18
2023-05-25T19:27:03.007Z,4.68
2023-05-25T19:29:08.105Z,4.35
2023-05-25T19:31:10.081Z,4.18
2023-05-25T19:33:13.792Z,4.10
2023-05-25T19:35:19.803Z,4.50
2023-05-25T19:37:21.358Z,5.00
2023-05-25T19:39:22.882Z,4.15
2023-05-25T19:41:27.839Z,4.05
2023-05-25T19:43:32.450Z,4.10
2023-05-25T19:47:59.387Z,4.22
2023-05-25T19:50:04.860Z,3.75
2023-05-25T19:52:06.526Z,4.13
2023-05-25T19:54:08.193Z,4.40
2023-05-25T19:56:09.765Z,4.43
2023-05-25T19:58:11.453Z,3.67
2023-05-25T20:00:21.359Z,4.68
2023-05-25T20:02:27.742Z,4.53
2023-05-25T20:04:34.404Z,4.50
2023-05-25T20:06:39.897Z,4.57
2023-05-25T20:08:43.772Z,4.43
2023-05-25T20:10:45.943Z,4.30
2023-05-25T20:12:47.573Z,5.38
2023-05-25T20:14:51.522Z,4.90
2023-05-25T20:16:55.709Z,5.03
2023-05-25T20:18:57.510Z,4.88
2023-05-25T20:20:59.395Z,4.80
2023-05-25T20:23:01.449Z,4.35
2023-05-25T20:25:03.084Z,4.40
2023-05-25T20:27:08.005Z,4.70
2023-05-25T20:29:09.604Z,4.65
2023-05-25T20:31:11.673Z,4.70
2023-05-25T20:33:14.588Z,4.47
2023-05-25T20:35:20.558Z,4.30
2023-05-25T20:37:22.281Z,4.20
2023-05-25T20:39:23.780Z,4.32
2023-05-25T20:41:25.277Z,4.10
2023-05-25T20:43:29.360Z,4.50
2023-05-25T20:45:30.959Z,3.97
2023-05-25T20:47:35.582Z,4.40
2023-05-25T20:49:37.147Z,3.80
2023-05-25T20:51:40.502Z,4.47
2023-05-25T20:53:42.263Z,4.10
2023-05-25T20:55:44.089Z,3.78
2023-05-25T20:57:46.304Z,4.18
2023-05-25T20:59:48.835Z,3.90
2023-05-25T21:01:50.647Z,4.13
2023-05-25T21:03:54.774Z,4.00
2023-05-25T21:05:56.529Z,3.88
2023-05-25T21:08:01.555Z,4.30
2023-05-25T21:10:30.718Z,4.00
2023-05-25T21:12:37.204Z,4.60
2023-05-25T21:14:39.991Z,3.92
2023-05-25T21:16:41.688Z,4.07
2023-05-25T21:18:43.475Z,3.80
2023-05-25T21:20:45.374Z,4.38
2023-05-25T21:22:47.185Z,4.53
2023-05-25T21:24:50.007Z,5.03
2023-05-25T21:26:51.789Z,4.70
2023-05-25T21:28:53.483Z,5.28
2023-05-25T21:30:56.571Z,5.03
2023-05-25T21:32:58.496Z,4.72
2023-05-25T21:35:02.315Z,4.82
2023-05-25T21:37:04.471Z,4.95
2023-05-25T21:39:06.182Z,4.43
2023-05-25T21:41:09.342Z,4.50
2023-05-25T21:43:11.416Z,4.88
2023-05-25T21:45:13.556Z,4.10
2023-05-25T21:47:15.794Z,4.50
2023-05-25T21:49:17.800Z,4.43
2023-05-25T21:51:19.752Z,4.13
2023-05-25T21:53:22.247Z,4.25
2023-05-25T21:55:24.619Z,4.68
2023-05-25T21:57:26.172Z,4.50
2023-05-25T21:59:27.863Z,4.55
2023-05-25T22:01:30.142Z,4.53
2023-05-25T22:03:34.537Z,4.35
2023-05-25T22:05:36.385Z,3.92
2023-05-25T22:07:42.610Z,4.07
2023-05-25T22:09:44.833Z,4.18
2023-05-25T22:11:46.689Z,3.92
2023-05-25T22:13:49.593Z,4.00
2023-05-25T22:15:51.346Z,3.90
2023-05-25T22:17:53.091Z,3.83
2023-05-25T22:20:06.451Z,3.80
2023-05-25T22:22:08.753Z,3.67
2023-05-25T22:24:13.771Z,3.85
2023-05-25T22:26:15.795Z,3.58
2023-05-25T22:28:18.586Z,4.20
2023-05-25T22:30:23.269Z,4.22
2023-05-25T22:32:25.449Z,4.03
2023-05-25T22:34:29.780Z,3.95
2023-05-25T22:36:31.440Z,4.10
2023-05-25T22:38:33.291Z,4.20
2023-05-25T22:40:34.950Z,4.10
2023-05-25T22:42:36.690Z,3.85
2023-05-25T22:44:38.715Z,4.10
2023-05-25T22:46:40.564Z,4.15
2023-05-25T22:48:43.478Z,3.75
2023-05-25T22:50:45.218Z,4.05
2023-05-25T22:52:47.781Z,3.83
2023-05-25T22:54:49.436Z,4.10
2023-05-25T22:56:51.391Z,4.65
2023-05-25T22:58:53.176Z,3.80
2023-05-25T23:00:56.406Z,3.75
2023-05-25T23:02:58.300Z,3.60
2023-05-25T23:05:00.431Z,3.88
2023-05-25T23:07:02.748Z,3.45
2023-05-25T23:09:14.145Z,3.45
2023-05-25T23:11:18.449Z,3.72
2023-05-25T23:13:20.406Z,3.78
2023-05-25T23:15:27.413Z,3.70
2023-05-25T23:17:29.135Z,3.63
2023-05-25T23:19:33.329Z,3.72
2023-05-25T23:21:35.149Z,3.45
2023-05-25T23:23:36.859Z,3.70
2023-05-25T23:25:39.952Z,3.95
2023-05-25T23:27:41.890Z,3.50
2023-05-25T23:29:43.405Z,3.33
2023-05-25T23:31:45.213Z,3.47
2023-05-25T23:33:47.069Z,3.60
2023-05-25T23:35:48.994Z,3.85
2023-05-25T23:37:52.083Z,3.42
2023-05-25T23:39:53.968Z,3.13
2023-05-25T23:41:55.721Z,3.50
2023-05-25T23:43:57.847Z,3.40
2023-05-25T23:46:02.705Z,3.65
2023-05-25T23:48:04.812Z,3.35
2023-05-25T23:50:07.259Z,3.80
2023-05-25T23:52:11.300Z,3.70
2023-05-25T23:54:13.088Z,3.65
2023-05-25T23:56:14.753Z,3.67
2023-05-25T23:58:19.756Z,3.50
